Time;durP1;ratioP1;P1;durP2;ratioP2;P2;SDS_P1;SDS_P2;PMS_P1;PMS_P2;Temp;Humidity;BMP_temperature;BMP_pressure;BME280_temperature;BME280_humidity;BME280_pressure;Samples;Min_cycle;Max_cycle;Signal;HPM_P1;HPM_P2
2021/09/29 00:00:21;;;;;;;7.57;5.90;;;10.20;99.90;;;;;;5034661;28;20217;-67
2021/09/29 00:02:48;;;;;;;12.23;6.27;;;10.20;99.90;;;;;;5034749;28;20582;-68
2021/09/29 00:05:15;;;;;;;7.20;5.30;;;10.10;99.90;;;;;;5034772;28;20242;-68
2021/09/29 00:07:43;;;;;;;8.27;5.77;;;10.10;99.90;;;;;;5034250;28;20586;-67
2021/09/29 00:10:11;;;;;;;8.03;6.00;;;10.10;99.90;;;;;;5033488;28;20324;-67
2021/09/29 00:12:38;;;;;;;9.37;6.27;;;10.00;99.90;;;;;;5034319;28;20199;-68
2021/09/29 00:15:10;;;;;;;8.83;5.83;;;9.90;99.90;;;;;;5034553;28;20211;-67
2021/09/29 00:17:37;;;;;;;13.57;6.07;;;10.00;99.90;;;;;;5034384;28;20214;-68
2021/09/29 00:20:05;;;;;;;9.37;6.00;;;10.00;99.90;;;;;;5026825;28;20590;-67
2021/09/29 00:22:32;;;;;;;9.37;6.33;;;10.00;99.90;;;;;;5033854;28;20213;-67
2021/09/29 00:25:00;;;;;;;12.30;6.37;;;10.00;99.90;;;;;;5034424;28;20213;-68
2021/09/29 00:27:27;;;;;;;6.90;5.70;;;9.90;99.90;;;;;;5034066;28;20249;-68
2021/09/29 00:29:58;;;;;;;8.77;6.37;;;10.90;99.90;;;;;;5032804;28;20242;-68
2021/09/29 00:32:25;;;;;;;8.97;5.90;;;9.90;99.90;;;;;;5032991;28;20230;-67
2021/09/29 00:34:52;;;;;;;8.60;6.03;;;9.90;99.90;;;;;;5032421;28;20210;-67
2021/09/29 00:37:19;;;;;;;8.40;5.70;;;9.90;99.90;;;;;;5033230;28;20301;-67
2021/09/29 00:39:45;;;;;;;9.60;6.63;;;9.90;99.90;;;;;;5035825;28;20213;-68
2021/09/29 00:42:14;;;;;;;9.43;6.33;;;9.90;99.90;;;;;;5032945;28;20689;-67
2021/09/29 00:44:41;;;;;;;9.00;6.50;;;9.90;99.90;;;;;;5032406;28;20302;-67
2021/09/29 00:47:08;;;;;;;8.97;6.70;;;9.80;99.90;;;;;;5032346;28;20226;-68
2021/09/29 00:49:35;;;;;;;8.10;5.57;;;9.80;99.90;;;;;;5032563;28;20210;-67
2021/09/29 00:52:02;;;;;;;8.53;6.27;;;9.80;99.90;;;;;;5032470;28;20213;-67
2021/09/29 00:54:29;;;;;;;7.77;6.30;;;9.80;99.90;;;;;;5032680;28;20199;-68
2021/09/29 00:56:57;;;;;;;9.80;6.40;;;9.80;99.90;;;;;;5032486;28;20233;-68
2021/09/29 00:59:25;;;;;;;8.40;6.10;;;9.80;99.90;;;;;;5032550;28;20212;-68
2021/09/29 01:01:52;;;;;;;6.90;5.37;;;9.70;99.90;;;;;;5032432;28;20241;-67
2021/09/29 01:04:22;;;;;;;9.83;5.80;;;9.70;99.90;;;;;;5034393;28;20226;-68
2021/09/29 01:06:57;;;;;;;9.40;6.30;;;9.70;99.90;;;;;;5032729;28;20884;-67
2021/09/29 01:09:27;;;;;;;11.73;6.13;;;9.70;99.90;;;;;;5031892;28;20659;-66
2021/09/29 01:12:01;;;;;;;10.37;6.13;;;9.70;99.90;;;;;;5032360;28;20206;-67
2021/09/29 01:14:37;;;;;;;8.87;6.10;;;9.70;99.90;;;;;;5032377;28;20211;-67
2021/09/29 01:17:05;;;;;;;7.73;6.03;;;9.70;99.90;;;;;;5032274;28;20201;-68
2021/09/29 01:19:48;;;;;;;8.20;6.37;;;9.70;99.90;;;;;;5032481;28;20293;-68
2021/09/29 01:22:22;;;;;;;8.93;5.97;;;9.70;99.90;;;;;;5032996;28;20229;-68
2021/09/29 01:24:55;;;;;;;11.33;6.43;;;9.70;99.90;;;;;;5032350;28;20209;-67
2021/09/29 01:27:25;;;;;;;7.67;6.03;;;9.70;99.90;;;;;;5032531;28;20219;-67
2021/09/29 01:29:53;;;;;;;8.70;6.30;;;9.70;99.90;;;;;;4993494;28;1145088;-67
2021/09/29 01:32:20;;;;;;;9.30;6.70;;;9.70;99.90;;;;;;5033505;28;20222;-67
2021/09/29 01:34:49;;;;;;;10.27;6.03;;;9.70;99.90;;;;;;5032683;28;20225;-67
2021/09/29 01:37:17;;;;;;;9.10;6.33;;;9.70;99.90;;;;;;5032503;28;20223;-67
2021/09/29 01:39:45;;;;;;;8.33;6.73;;;9.60;99.90;;;;;;5033072;28;20301;-67
2021/09/29 01:42:12;;;;;;;9.83;6.33;;;9.60;99.90;;;;;;5019384;28;20671;-66
2021/09/29 01:44:40;;;;;;;8.97;6.10;;;9.60;99.90;;;;;;5032930;28;20220;-68
2021/09/29 01:47:09;;;;;;;10.33;6.33;;;9.60;99.90;;;;;;5032519;28;20549;-67
2021/09/29 01:49:39;;;;;;;9.50;6.13;;;9.50;99.90;;;;;;5033213;28;20261;-67
2021/09/29 01:52:08;;;;;;;7.97;6.70;;;9.60;99.90;;;;;;5033433;28;20210;-67
2021/09/29 01:54:39;;;;;;;8.87;7.20;;;9.50;99.90;;;;;;5032752;28;20207;-68
2021/09/29 01:57:06;;;;;;;10.53;6.50;;;9.50;99.90;;;;;;5032168;28;20199;-68
2021/09/29 01:59:33;;;;;;;9.37;6.63;;;9.50;99.90;;;;;;5032497;28;20214;-68
2021/09/29 02:02:01;;;;;;;7.33;6.17;;;9.50;99.90;;;;;;5032568;28;20209;-68
2021/09/29 02:04:28;;;;;;;9.63;6.37;;;9.60;99.90;;;;;;5032727;28;20210;-68
2021/09/29 02:06:57;;;;;;;9.07;6.07;;;9.50;99.90;;;;;;5032135;28;20236;-68
2021/09/29 02:09:26;;;;;;;7.97;6.20;;;9.50;99.90;;;;;;5032124;28;20213;-68
2021/09/29 02:11:55;;;;;;;10.40;6.27;;;9.50;99.90;;;;;;5032482;28;20210;-67
2021/09/29 02:14:23;;;;;;;8.60;6.83;;;9.50;99.90;;;;;;5032339;28;20213;-70
2021/09/29 02:16:52;;;;;;;8.63;6.67;;;9.50;99.90;;;;;;5032676;28;20210;-68
2021/09/29 02:19:21;;;;;;;7.60;5.90;;;9.50;99.90;;;;;;5032456;28;20652;-68
2021/09/29 02:21:48;;;;;;;11.00;6.80;;;9.40;99.90;;;;;;5031668;28;20242;-69
2021/09/29 02:24:15;;;;;;;7.67;6.40;;;9.40;99.90;;;;;;5031932;28;20218;-67
2021/09/29 02:26:42;;;;;;;8.50;6.73;;;9.30;99.90;;;;;;5031624;28;20268;-67
2021/09/29 02:29:10;;;;;;;9.60;6.57;;;9.30;99.90;;;;;;5032182;28;20317;-66
2021/09/29 02:31:37;;;;;;;11.77;6.57;;;9.30;99.90;;;;;;5018840;28;20216;-67
2021/09/29 02:34:04;;;;;;;9.80;6.63;;;9.30;99.90;;;;;;5031832;28;20203;-67
2021/09/29 02:36:33;;;;;;;11.03;6.70;;;9.30;99.90;;;;;;5024256;28;20582;-67
2021/09/29 02:39:00;;;;;;;9.07;6.13;;;9.20;99.90;;;;;;5031818;28;20269;-68
2021/09/29 02:41:27;;;;;;;10.13;7.13;;;9.20;99.90;;;;;;5032934;28;20672;-68
2021/09/29 02:43:54;;;;;;;9.03;6.17;;;9.20;99.90;;;;;;5018122;28;20573;-67
2021/09/29 02:46:21;;;;;;;8.37;6.40;;;9.20;99.90;;;;;;5033142;28;20202;-67
2021/09/29 02:48:48;;;;;;;9.23;6.10;;;9.20;99.90;;;;;;5033885;28;20236;-68
2021/09/29 02:51:15;;;;;;;9.83;6.47;;;9.20;99.90;;;;;;5031477;28;20293;-68
2021/09/29 02:53:43;;;;;;;9.27;6.53;;;9.20;99.90;;;;;;5031812;28;20214;-68
2021/09/29 02:56:10;;;;;;;7.83;6.00;;;9.20;99.90;;;;;;5032097;28;20668;-68
2021/09/29 02:58:37;;;;;;;9.70;6.50;;;9.10;99.90;;;;;;5040653;28;20702;-68
2021/09/29 03:01:04;;;;;;;10.50;7.07;;;9.00;99.90;;;;;;5031491;28;20644;-68
2021/09/29 03:03:32;;;;;;;9.40;6.93;;;9.10;99.90;;;;;;5031731;28;20640;-67
2021/09/29 03:05:58;;;;;;;8.17;6.03;;;9.10;99.90;;;;;;5030432;28;20214;-67
2021/09/29 03:08:25;;;;;;;9.07;6.23;;;9.10;99.90;;;;;;5030695;28;20242;-68
2021/09/29 03:10:54;;;;;;;9.50;6.43;;;9.10;99.90;;;;;;5031076;28;20934;-68
2021/09/29 03:13:20;;;;;;;10.03;6.87;;;9.00;99.90;;;;;;5031738;28;20203;-69
2021/09/29 03:15:48;;;;;;;10.37;6.77;;;9.10;99.90;;;;;;5031721;28;20233;-68
2021/09/29 03:18:15;;;;;;;9.00;6.33;;;9.00;99.90;;;;;;5030940;28;20202;-68
2021/09/29 03:20:42;;;;;;;10.33;6.10;;;9.00;99.90;;;;;;5031255;28;20209;-67
2021/09/29 03:23:09;;;;;;;10.07;7.37;;;9.00;99.90;;;;;;5031582;28;20674;-69
2021/09/29 03:25:36;;;;;;;10.03;7.07;;;9.00;99.90;;;;;;5026094;28;20206;-68
2021/09/29 03:28:05;;;;;;;10.67;6.47;;;9.00;99.90;;;;;;5031089;28;20234;-67
2021/09/29 03:30:32;;;;;;;11.83;6.60;;;9.00;99.90;;;;;;5031242;28;20234;-68
2021/09/29 03:32:59;;;;;;;10.07;6.37;;;9.00;99.90;;;;;;5030947;28;20222;-68
2021/09/29 03:35:26;;;;;;;10.43;6.47;;;9.00;99.90;;;;;;5030898;28;20210;-67
2021/09/29 03:37:53;;;;;;;10.70;6.57;;;9.00;99.90;;;;;;5031095;28;20216;-68
2021/09/29 03:40:20;;;;;;;10.70;6.93;;;9.00;99.90;;;;;;5030942;28;20211;-68
2021/09/29 03:42:47;;;;;;;9.80;6.37;;;8.90;99.90;;;;;;5030937;28;20214;-68
2021/09/29 03:45:15;;;;;;;10.27;6.93;;;8.90;99.90;;;;;;5030516;28;20221;-68
2021/09/29 03:47:43;;;;;;;11.27;6.80;;;8.90;99.90;;;;;;5031038;28;20740;-68
2021/09/29 03:50:12;;;;;;;13.10;7.03;;;8.90;99.90;;;;;;5030528;28;20207;-68
2021/09/29 03:52:39;;;;;;;9.63;6.63;;;8.90;99.90;;;;;;5030859;28;20574;-67
2021/09/29 03:55:06;;;;;;;11.17;7.30;;;8.90;99.90;;;;;;5030932;28;20217;-68
2021/09/29 03:57:35;;;;;;;9.30;6.47;;;8.90;99.90;;;;;;5030521;28;20466;-68
2021/09/29 04:00:02;;;;;;;9.63;7.30;;;8.80;99.90;;;;;;5030803;28;20206;-68
2021/09/29 04:02:30;;;;;;;8.57;6.50;;;8.80;99.90;;;;;;5030578;28;20217;-67
2021/09/29 04:04:57;;;;;;;11.73;6.87;;;8.90;99.90;;;;;;5031151;28;20221;-67
2021/09/29 04:07:24;;;;;;;11.43;7.10;;;8.80;99.90;;;;;;5030635;28;20256;-67
2021/09/29 04:09:51;;;;;;;11.73;6.97;;;8.80;99.90;;;;;;5032179;28;20230;-67
2021/09/29 04:12:21;;;;;;;8.07;6.07;;;8.80;99.90;;;;;;5031381;28;20206;-69
2021/09/29 04:14:47;;;;;;;8.50;6.03;;;8.80;99.90;;;;;;5030826;28;20214;-67
2021/09/29 04:17:14;;;;;;;10.47;6.40;;;8.80;99.90;;;;;;5031534;28;20274;-67
2021/09/29 04:19:42;;;;;;;11.40;6.90;;;8.80;99.90;;;;;;5032941;28;20728;-66
2021/09/29 04:22:10;;;;;;;11.60;7.00;;;8.70;99.90;;;;;;5034549;28;20207;-68
2021/09/29 04:24:37;;;;;;;10.47;6.33;;;8.80;99.90;;;;;;5034397;28;20240;-68
2021/09/29 04:27:05;;;;;;;8.83;6.70;;;8.80;99.90;;;;;;5035437;28;20578;-68
2021/09/29 04:29:32;;;;;;;10.10;6.73;;;8.70;99.90;;;;;;5034846;28;20269;-68
2021/09/29 04:31:59;;;;;;;10.30;6.73;;;8.70;99.90;;;;;;5015129;28;20218;-66
2021/09/29 04:34:25;;;;;;;12.23;6.73;;;8.70;99.90;;;;;;5028667;28;20213;-68
2021/09/29 04:36:54;;;;;;;11.10;6.47;;;8.70;99.90;;;;;;5033914;28;20226;-68
2021/09/29 04:39:21;;;;;;;9.60;6.70;;;8.70;99.90;;;;;;5033758;28;20216;-67
2021/09/29 04:41:47;;;;;;;11.07;6.67;;;8.70;99.90;;;;;;5034014;28;20211;-68
2021/09/29 04:44:14;;;;;;;9.30;6.87;;;8.70;99.90;;;;;;5034026;28;20238;-67
2021/09/29 04:46:41;;;;;;;8.60;6.63;;;8.70;99.90;;;;;;5033700;28;20213;-68
2021/09/29 04:49:08;;;;;;;10.07;6.80;;;8.70;99.90;;;;;;5034099;28;20372;-68
2021/09/29 04:51:35;;;;;;;9.30;6.73;;;8.70;99.90;;;;;;5034337;28;20203;-71
2021/09/29 04:54:04;;;;;;;9.17;6.70;;;8.70;99.90;;;;;;5034274;28;20215;-73
2021/09/29 04:56:30;;;;;;;11.47;7.30;;;8.70;99.90;;;;;;5034775;28;20705;-68
2021/09/29 04:58:57;;;;;;;14.03;6.90;;;8.60;99.90;;;;;;5033697;28;20305;-68
2021/09/29 05:01:26;;;;;;;11.03;6.57;;;8.60;99.90;;;;;;5025837;28;20214;-68
2021/09/29 05:03:53;;;;;;;8.50;5.93;;;8.60;99.90;;;;;;5029494;28;20214;-68
2021/09/29 05:06:20;;;;;;;11.30;6.60;;;8.60;99.90;;;;;;5033841;28;20215;-68
2021/09/29 05:08:48;;;;;;;8.73;7.10;;;8.70;99.90;;;;;;5033379;28;20684;-68
2021/09/29 05:11:23;;;;;;;10.27;7.37;;;8.70;99.90;;;;;;5034158;28;20281;-68
2021/09/29 05:13:50;;;;;;;11.20;7.20;;;8.70;99.90;;;;;;5034591;28;20289;-70
2021/09/29 05:16:17;;;;;;;9.47;6.27;;;8.70;99.90;;;;;;5039468;28;20206;-72
2021/09/29 05:18:44;;;;;;;9.90;6.73;;;8.80;99.90;;;;;;5028352;28;20290;-71
2021/09/29 05:21:11;;;;;;;12.60;7.57;;;8.80;99.90;;;;;;5031963;28;20297;-70
2021/09/29 05:23:38;;;;;;;13.10;6.90;;;8.80;99.90;;;;;;5040544;28;20221;-69
2021/09/29 05:26:05;;;;;;;14.80;8.70;;;8.80;99.90;;;;;;5026936;28;20570;-71
2021/09/29 05:28:36;;;;;;;14.63;7.37;;;8.90;99.90;;;;;;5032646;28;20683;-72
2021/09/29 05:31:03;;;;;;;12.83;7.90;;;8.90;99.90;;;;;;5025297;28;20285;-72
2021/09/29 05:33:31;;;;;;;13.23;8.30;;;9.00;99.90;;;;;;5025212;28;20682;-70
2021/09/29 05:35:58;;;;;;;14.60;7.93;;;9.00;99.90;;;;;;5033679;28;20229;-70
2021/09/29 05:38:25;;;;;;;8.67;6.43;;;9.10;99.90;;;;;;5039717;28;20558;-70
2021/09/29 05:40:52;;;;;;;11.03;6.80;;;9.20;99.90;;;;;;5032209;28;20254;-71
2021/09/29 05:43:19;;;;;;;11.10;7.53;;;9.20;99.90;;;;;;5033049;28;20648;-70
2021/09/29 05:45:48;;;;;;;10.40;7.37;;;9.20;99.90;;;;;;5033995;28;20217;-71
2021/09/29 05:48:15;;;;;;;12.07;8.30;;;9.30;99.90;;;;;;5025627;28;20226;-70
2021/09/29 05:50:42;;;;;;;14.23;6.97;;;9.30;99.90;;;;;;5026248;28;20551;-72
2021/09/29 05:53:09;;;;;;;9.93;7.43;;;9.40;99.90;;;;;;5033149;28;20220;-70
2021/09/29 05:55:36;;;;;;;9.53;6.13;;;9.50;99.90;;;;;;5036894;28;20202;-71
2021/09/29 05:58:03;;;;;;;10.37;6.63;;;9.50;99.90;;;;;;5033155;28;20206;-71
2021/09/29 06:00:30;;;;;;;12.73;6.63;;;9.60;99.90;;;;;;5037930;28;20202;-71
2021/09/29 06:02:58;;;;;;;11.53;6.17;;;9.60;99.90;;;;;;5035720;28;20737;-71
2021/09/29 06:05:25;;;;;;;7.83;5.97;;;9.60;99.90;;;;;;5031677;28;20205;-73
2021/09/29 06:07:52;;;;;;;12.40;6.83;;;9.70;99.90;;;;;;5034866;28;20218;-72
2021/09/29 06:10:21;;;;;;;10.67;6.43;;;9.70;99.90;;;;;;5042885;28;20610;-71
2021/09/29 06:12:48;;;;;;;11.53;6.63;;;9.70;99.90;;;;;;5034952;28;20217;-71
2021/09/29 06:15:20;;;;;;;12.20;6.90;;;9.70;99.90;;;;;;5034620;28;20240;-73
2021/09/29 06:17:55;;;;;;;12.40;6.30;;;9.80;99.90;;;;;;5033248;28;20735;-71
2021/09/29 06:20:24;;;;;;;13.00;6.20;;;9.90;99.90;;;;;;5032556;28;20209;-72
2021/09/29 06:22:51;;;;;;;10.80;6.70;;;9.90;99.90;;;;;;5043974;28;20612;-72
2021/09/29 06:25:20;;;;;;;14.03;6.67;;;10.00;99.90;;;;;;5035968;28;20202;-73
2021/09/29 06:27:47;;;;;;;12.20;6.53;;;10.10;99.90;;;;;;5030530;28;20245;-73
2021/09/29 06:30:14;;;;;;;9.37;6.07;;;10.20;99.90;;;;;;5037191;28;20787;-71
2021/09/29 06:32:40;;;;;;;9.83;6.27;;;10.30;99.90;;;;;;5035586;28;20305;-70
2021/09/29 06:35:08;;;;;;;11.50;6.90;;;10.50;99.90;;;;;;5042572;28;20246;-70
2021/09/29 06:37:42;;;;;;;9.57;6.17;;;10.60;99.90;;;;;;5031932;28;20228;-71
2021/09/29 06:40:10;;;;;;;12.67;6.77;;;10.70;99.90;;;;;;5035281;28;20207;-70
2021/09/29 06:42:37;;;;;;;9.33;6.10;;;10.80;99.90;;;;;;5040884;28;20202;-70
2021/09/29 06:45:06;;;;;;;12.63;7.20;;;10.80;99.90;;;;;;5035611;28;20206;-71
2021/09/29 06:47:33;;;;;;;9.73;5.83;;;10.90;99.90;;;;;;5037057;28;20293;-72
2021/09/29 06:50:00;;;;;;;11.50;6.00;;;10.90;99.90;;;;;;5039874;28;20217;-71
2021/09/29 06:52:27;;;;;;;11.53;6.57;;;11.00;99.90;;;;;;5033793;28;20202;-70
2021/09/29 06:54:55;;;;;;;11.07;6.37;;;11.10;99.90;;;;;;5033863;28;20206;-70
2021/09/29 06:57:22;;;;;;;12.20;6.23;;;11.10;99.90;;;;;;5031746;28;20207;-70
2021/09/29 06:59:49;;;;;;;9.30;5.93;;;11.20;99.90;;;;;;5021254;28;20230;-69
2021/09/29 07:02:16;;;;;;;10.90;7.03;;;11.30;99.90;;;;;;5018239;28;20667;-69
2021/09/29 07:04:42;;;;;;;10.20;6.03;;;11.40;99.90;;;;;;5032564;28;20260;-69
2021/09/29 07:07:09;;;;;;;13.03;6.10;;;11.50;99.90;;;;;;5034346;28;20281;-71
2021/09/29 07:09:36;;;;;;;13.77;5.87;;;11.70;99.90;;;;;;5033581;28;20597;-70
2021/09/29 07:12:06;;;;;;;12.50;6.13;;;11.80;99.90;;;;;;5032727;28;20216;-70
2021/09/29 07:14:33;;;;;;;10.73;5.57;;;11.90;99.90;;;;;;5033817;28;20218;-70
2021/09/29 07:17:01;;;;;;;9.87;5.73;;;12.00;99.90;;;;;;5033769;28;20215;-70
2021/09/29 07:19:28;;;;;;;8.00;5.80;;;12.10;99.90;;;;;;5033376;28;20207;-71
2021/09/29 07:21:55;;;;;;;10.70;5.60;;;12.20;99.90;;;;;;5031856;28;20218;-70
2021/09/29 07:24:22;;;;;;;10.83;5.80;;;12.20;99.90;;;;;;5020779;28;20220;-70
2021/09/29 07:26:49;;;;;;;12.73;5.50;;;12.40;99.90;;;;;;5031931;28;20297;-70
2021/09/29 07:29:19;;;;;;;13.87;6.23;;;12.40;99.90;;;;;;5032661;28;20329;-72
2021/09/29 07:31:46;;;;;;;9.50;5.40;;;12.50;99.90;;;;;;5031687;28;20217;-71
2021/09/29 07:34:13;;;;;;;9.23;6.23;;;12.60;99.90;;;;;;5033362;28;20218;-70
2021/09/29 07:36:40;;;;;;;12.67;6.27;;;12.70;99.90;;;;;;5020863;28;20318;-71
2021/09/29 07:39:07;;;;;;;13.97;6.70;;;12.80;99.90;;;;;;5032550;28;20553;-70
2021/09/29 07:41:35;;;;;;;13.30;5.90;;;12.90;99.90;;;;;;5033003;28;20222;-71
2021/09/29 07:44:01;;;;;;;10.03;5.17;;;13.10;99.90;;;;;;5037486;28;20217;-71
2021/09/29 07:46:30;;;;;;;12.30;6.40;;;13.20;99.90;;;;;;5039351;28;20202;-70
2021/09/29 07:48:57;;;;;;;8.87;5.47;;;13.20;99.90;;;;;;5031670;28;20309;-70
2021/09/29 07:51:24;;;;;;;12.87;5.57;;;13.30;99.90;;;;;;5031212;28;20256;-71
2021/09/29 07:53:51;;;;;;;9.83;6.00;;;13.40;99.90;;;;;;5033133;28;20206;-71
2021/09/29 07:56:18;;;;;;;17.73;5.57;;;13.50;99.90;;;;;;5036077;28;20268;-68
2021/09/29 07:58:45;;;;;;;10.03;5.20;;;13.80;99.90;;;;;;5036473;28;20207;-68
2021/09/29 08:01:11;;;;;;;9.67;5.40;;;13.90;99.90;;;;;;5034876;28;20206;-69
2021/09/29 08:03:43;;;;;;;9.77;4.73;;;14.00;99.90;;;;;;5035942;28;20214;-71
2021/09/29 08:06:10;;;;;;;9.83;5.90;;;14.10;99.90;;;;;;5037309;28;20222;-70
2021/09/29 08:08:36;;;;;;;13.63;5.93;;;14.30;99.90;;;;;;5035992;28;20345;-69
2021/09/29 08:11:04;;;;;;;13.17;5.60;;;14.40;99.90;;;;;;5034185;28;20636;-70
2021/09/29 08:13:31;;;;;;;11.87;5.30;;;14.50;99.90;;;;;;5023845;28;20229;-71
2021/09/29 08:15:59;;;;;;;13.63;5.57;;;14.70;99.90;;;;;;5046132;28;20237;-70
2021/09/29 08:18:26;;;;;;;9.83;5.57;;;14.80;99.90;;;;;;5047140;28;20206;-71
2021/09/29 08:20:56;;;;;;;10.27;5.53;;;14.90;99.90;;;;;;5055294;28;20389;-70
2021/09/29 08:23:26;;;;;;;12.37;5.50;;;15.10;99.90;;;;;;5042933;28;20685;-70
2021/09/29 08:29:11;;;;;;;12.10;5.83;;;15.20;99.90;;;;;;5052363;28;20241;-71
2021/09/29 08:31:41;;;;;;;11.97;5.50;;;15.40;99.90;;;;;;5041578;28;20198;-70
2021/09/29 08:34:19;;;;;;;11.40;5.63;;;15.50;99.90;;;;;;5045748;28;20260;-69
2021/09/29 08:36:53;;;;;;;10.50;5.80;;;15.60;99.90;;;;;;5048543;28;20241;-70
2021/09/29 08:39:27;;;;;;;10.83;5.80;;;15.70;99.90;;;;;;5048390;28;20199;-71
2021/09/29 08:42:08;;;;;;;12.87;5.80;;;15.90;99.90;;;;;;5045327;28;20194;-69
2021/09/29 08:44:44;;;;;;;12.33;5.83;;;16.10;99.90;;;;;;5052298;28;20209;-69
2021/09/29 08:47:17;;;;;;;13.17;5.93;;;16.30;99.90;;;;;;5044835;28;20201;-70
2021/09/29 09:14:59;;;;;;;9.27;5.03;;;28.50;57.00;;;;;;5040531;28;20205;-68
2021/09/29 09:17:28;;;;;;;15.55;5.35;;;29.20;51.50;;;;;;5044432;28;20206;-70
2021/09/29 09:19:56;;;;;;;17.88;5.35;;;29.70;50.60;;;;;;5045192;28;20524;-70
2021/09/29 09:22:32;;;;;;;8.50;5.00;;;30.00;48.50;;;;;;5042885;28;20478;-69
2021/09/29 09:25:01;;;;;;;10.27;5.28;;;30.70;48.40;;;;;;5021677;28;20202;-68
2021/09/29 09:27:39;;;;;;;7.75;4.47;;;31.80;45.20;;;;;;5033832;28;20297;-70
2021/09/29 09:30:07;;;;;;;9.15;5.18;;;32.70;43.10;;;;;;5033480;28;20226;-69
2021/09/29 09:32:42;;;;;;;9.95;4.72;;;33.50;41.60;;;;;;5033720;28;20203;-71
2021/09/29 09:35:11;;;;;;;9.98;4.97;;;34.50;40.00;;;;;;5033353;28;20203;-70
2021/09/29 09:37:39;;;;;;;8.80;4.70;;;35.30;38.40;;;;;;5036556;28;20625;-70
2021/09/29 09:40:11;;;;;;;8.73;4.53;;;36.10;36.70;;;;;;5049803;28;20218;-71
2021/09/29 09:42:42;;;;;;;9.32;5.00;;;36.40;35.00;;;;;;5038142;28;20296;-73
2021/09/29 09:45:10;;;;;;;12.75;4.88;;;36.30;34.30;;;;;;5049595;28;20725;-72
2021/09/29 09:47:43;;;;;;;10.00;4.75;;;36.00;34.40;;;;;;5039146;28;20217;-70
2021/09/29 09:50:11;;;;;;;14.07;4.90;;;35.90;35.40;;;;;;5033586;28;20272;-69
2021/09/29 09:52:41;;;;;;;12.10;5.00;;;36.70;34.00;;;;;;5019149;28;20233;-69
2021/09/29 09:55:13;;;;;;;5.97;4.47;;;37.50;33.10;;;;;;5033580;28;20253;-69
2021/09/29 09:57:41;;;;;;;10.60;4.47;;;37.90;32.30;;;;;;5033802;28;20206;-68
2021/09/29 10:00:10;;;;;;;8.95;4.97;;;37.50;31.60;;;;;;5032503;28;20257;-69
2021/09/29 10:02:41;;;;;;;8.88;4.70;;;37.60;31.80;;;;;;5019433;28;20215;-70
2021/09/29 10:05:10;;;;;;;11.85;4.47;;;37.10;31.80;;;;;;5033238;28;20314;-69
2021/09/29 10:07:37;;;;;;;10.00;5.30;;;37.20;32.00;;;;;;5033392;28;20253;-71
2021/09/29 10:10:08;;;;;;;8.23;4.72;;;38.20;31.90;;;;;;5032775;28;20237;-69
2021/09/29 10:12:57;;;;;;;11.23;4.88;;;39.00;30.40;;;;;;5034609;28;20214;-70
2021/09/29 10:23:59;;;;;;;11.45;4.90;;;40.20;28.90;;;;;;5050487;28;20193;-70
2021/09/29 10:26:26;;;;;;;9.93;4.25;;;40.00;28.50;;;;;;5046295;28;20293;-71
2021/09/29 10:29:05;;;;;;;5.22;4.28;;;40.20;28.30;;;;;;5031659;28;20234;-69
2021/09/29 10:31:55;;;;;;;10.23;4.82;;;40.10;28.20;;;;;;5040457;28;20229;-70
2021/09/29 10:34:34;;;;;;;8.95;4.85;;;39.80;28.10;;;;;;5041991;28;20682;-70
2021/09/29 10:40:19;;;;;;;5.80;3.90;;;37.90;28.50;;;;;;4995499;28;20218;-69
2021/09/29 10:42:59;;;;;;;6.05;4.32;;;36.80;29.50;;;;;;5032663;28;20211;-70
2021/09/29 10:45:36;;;;;;;7.28;4.10;;;36.60;29.60;;;;;;5033604;28;20241;-70
2021/09/29 11:28:14;;;;;;;6.38;3.85;;;38.40;28.30;;;;;;5027942;28;20336;-70
2021/09/29 11:30:45;;;;;;;6.60;3.97;;;38.10;28.50;;;;;;5041996;28;20262;-69
2021/09/29 11:33:26;;;;;;;8.82;3.90;;;37.70;28.80;;;;;;5040303;28;20749;-71
2021/09/29 11:36:03;;;;;;;6.18;3.97;;;36.70;28.70;;;;;;5047986;28;20611;-70
2021/09/29 12:09:34;;;;;;;5.80;4.25;;;35.00;31.00;;;;;;5034912;28;20216;-68
2021/09/29 12:12:17;;;;;;;6.53;3.75;;;34.20;31.20;;;;;;5035973;28;20222;-70
2021/09/29 12:14:46;;;;;;;7.00;4.50;;;33.80;31.90;;;;;;5037116;28;20210;-71
2021/09/29 12:17:19;;;;;;;6.55;4.15;;;33.30;32.70;;;;;;5036708;28;20590;-70
2021/09/29 12:19:48;;;;;;;10.35;3.97;;;33.00;33.40;;;;;;5037645;28;20230;-71
2021/09/29 12:22:19;;;;;;;6.95;4.13;;;33.10;32.80;;;;;;5037198;28;20249;-72
2021/09/29 12:24:50;;;;;;;7.32;3.83;;;31.90;34.10;;;;;;5037431;28;20268;-70
2021/09/29 12:27:26;;;;;;;8.27;4.55;;;31.10;35.40;;;;;;5036307;28;20219;-72
2021/09/29 12:29:53;;;;;;;7.90;4.55;;;30.20;35.10;;;;;;5028677;28;20247;-69
2021/09/29 12:32:49;;;;;;;8.13;4.47;;;28.60;36.80;;;;;;5036894;28;20214;-71
2021/09/29 12:35:22;;;;;;;7.90;3.80;;;27.00;39.20;;;;;;5036777;28;20261;-70
2021/09/29 12:37:57;;;;;;;5.93;4.20;;;25.40;41.40;;;;;;5028820;28;20559;-70
2021/09/29 12:40:27;;;;;;;8.38;4.38;;;24.10;43.30;;;;;;5044498;28;20294;-71
2021/09/29 12:42:59;;;;;;;8.32;4.50;;;23.00;45.10;;;;;;5037731;28;20262;-70
2021/09/29 12:45:29;;;;;;;7.72;4.63;;;22.20;46.60;;;;;;5047291;28;20633;-71
2021/09/29 12:47:57;;;;;;;5.68;4.35;;;21.80;48.00;;;;;;5020911;28;20215;-70
2021/09/29 12:50:28;;;;;;;8.40;4.43;;;21.30;48.80;;;;;;5033501;28;20683;-69
2021/09/29 12:53:00;;;;;;;10.38;4.97;;;20.90;49.90;;;;;;5035948;28;20209;-72
2021/09/29 12:55:37;;;;;;;6.35;4.85;;;20.50;51.20;;;;;;5034811;28;20654;-70
2021/09/29 12:58:04;;;;;;;9.48;4.78;;;20.60;52.00;;;;;;5040656;28;20659;-70
2021/09/29 13:00:31;;;;;;;5.65;4.47;;;20.60;51.30;;;;;;5046576;28;20622;-70
2021/09/29 13:03:02;;;;;;;9.25;4.70;;;20.60;51.70;;;;;;5045597;28;20205;-70
2021/09/29 13:05:29;;;;;;;13.20;4.55;;;20.70;51.80;;;;;;5043903;28;20198;-71
2021/09/29 13:07:56;;;;;;;7.40;4.57;;;20.50;51.90;;;;;;5047243;28;20212;-71
2021/09/29 13:10:23;;;;;;;7.38;4.15;;;20.20;52.50;;;;;;5047499;28;20317;-70
2021/09/29 13:12:52;;;;;;;7.30;4.65;;;19.90;53.20;;;;;;5048450;28;20202;-72
2021/09/29 13:15:19;;;;;;;7.45;5.07;;;19.60;53.80;;;;;;5040020;28;20299;-71
2021/09/29 13:17:49;;;;;;;7.22;4.20;;;19.40;54.20;;;;;;5039319;28;20210;-70
2021/09/29 13:20:19;;;;;;;8.85;4.43;;;19.20;55.10;;;;;;5042846;28;20210;-71
2021/09/29 13:22:51;;;;;;;7.38;4.68;;;18.90;55.50;;;;;;5049196;28;20235;-71
2021/09/29 13:36:35;;;;;;;6.18;4.78;;;18.80;56.80;;;;;;5045153;28;20272;-70
2021/09/29 13:39:04;;;;;;;8.77;4.77;;;18.70;56.80;;;;;;5046689;28;20248;-69
2021/09/29 13:41:31;;;;;;;9.95;4.70;;;18.50;57.20;;;;;;5046198;28;20583;-69
2021/09/29 13:43:59;;;;;;;9.85;4.88;;;18.40;57.70;;;;;;5046354;28;20568;-70
2021/09/29 13:46:26;;;;;;;7.55;4.20;;;18.30;58.20;;;;;;5047462;28;20564;-69
2021/09/29 13:48:55;;;;;;;6.95;4.30;;;18.20;59.10;;;;;;5043339;28;20814;-69
2021/09/29 13:51:25;;;;;;;8.23;4.77;;;18.10;58.80;;;;;;5042630;28;20317;-70
2021/09/29 13:53:52;;;;;;;5.53;3.73;;;18.00;58.90;;;;;;5044689;28;20211;-69
2021/09/29 13:56:20;;;;;;;5.97;3.95;;;18.00;59.30;;;;;;5042244;28;20232;-71
2021/09/29 14:29:37;;;;;;;6.37;4.47;;;17.10;61.90;;;;;;5058175;28;20446;-73
2021/09/29 14:32:07;;;;;;;6.53;4.23;;;17.00;61.90;;;;;;5064193;28;20204;-72
2021/09/29 14:34:35;;;;;;;8.07;4.10;;;17.00;62.10;;;;;;5068488;28;20718;-72
2021/09/29 14:37:04;;;;;;;8.27;4.43;;;17.00;62.30;;;;;;5059728;28;20226;-70
2021/09/29 14:39:30;;;;;;;9.80;4.67;;;17.00;62.50;;;;;;5058337;28;20312;-71
2021/09/29 14:41:57;;;;;;;9.73;4.53;;;16.90;62.60;;;;;;5063072;28;20206;-70
2021/09/29 14:44:25;;;;;;;7.57;4.27;;;17.00;62.90;;;;;;5066621;28;20217;-70
2021/09/29 14:46:52;;;;;;;7.20;4.20;;;17.00;63.00;;;;;;5054385;28;20285;-71
2021/09/29 14:49:19;;;;;;;14.23;4.70;;;17.00;63.20;;;;;;5047990;28;20296;-71
2021/09/29 14:51:46;;;;;;;7.57;4.00;;;17.00;63.40;;;;;;5066508;28;20610;-71
2021/09/29 14:54:14;;;;;;;9.57;4.60;;;17.00;63.60;;;;;;5063259;28;20297;-70
2021/09/29 14:56:43;;;;;;;8.83;4.37;;;16.90;63.60;;;;;;5059992;28;20237;-71
2021/09/29 14:59:10;;;;;;;7.90;4.67;;;16.90;63.90;;;;;;5056863;28;20252;-70
2021/09/29 15:01:37;;;;;;;7.30;4.30;;;16.90;64.20;;;;;;5052640;28;20206;-69
2021/09/29 15:04:05;;;;;;;7.87;4.53;;;16.80;64.40;;;;;;5052610;28;20269;-71
2021/09/29 15:06:31;;;;;;;12.43;4.83;;;16.80;64.50;;;;;;5050643;28;20213;-70
2021/09/29 15:08:58;;;;;;;7.50;4.47;;;16.80;64.80;;;;;;5053509;28;20211;-73
2021/09/29 15:11:27;;;;;;;8.67;5.33;;;16.80;65.10;;;;;;5055694;28;20202;-73
2021/09/29 15:13:57;;;;;;;11.03;4.90;;;16.90;65.40;;;;;;5047943;28;20209;-72
2021/09/29 15:16:28;;;;;;;11.13;4.60;;;16.90;65.50;;;;;;5028776;28;20198;-72
2021/09/29 15:19:07;;;;;;;10.00;5.30;;;17.30;66.10;;;;;;5027483;28;20241;-71
2021/09/29 15:21:55;;;;;;;8.90;5.13;;;16.80;65.80;;;;;;5030612;28;20297;-71
2021/09/29 15:24:35;;;;;;;8.70;4.63;;;16.70;66.10;;;;;;5026892;28;20567;-71
2021/09/29 15:30:07;;;;;;;7.17;4.23;;;16.70;66.10;;;;;;5034505;28;20226;-72
2021/09/29 15:46:48;;;;;;;6.13;4.20;;;16.30;68.30;;;;;;5040943;28;20516;-72